createdAt,value
2022-11-16T00:00:24.314Z,997.13
2022-11-16T00:01:24.277Z,997.15
2022-11-16T00:02:24.306Z,997.05
2022-11-16T00:03:24.234Z,997.07
2022-11-16T00:04:24.253Z,997.10
2022-11-16T00:05:28.097Z,997.10
2022-11-16T00:06:24.240Z,997.09
2022-11-16T00:07:24.240Z,997.07
2022-11-16T00:08:24.193Z,997.09
2022-11-16T00:09:24.172Z,997.01
2022-11-16T00:10:24.165Z,996.99
2022-11-16T00:11:24.105Z,996.96
2022-11-16T00:12:24.123Z,997.00
2022-11-16T00:13:24.113Z,996.97
2022-11-16T00:14:24.077Z,996.96
2022-11-16T00:15:24.054Z,996.95
2022-11-16T00:16:24.103Z,996.92
2022-11-16T00:17:24.054Z,997.00
2022-11-16T00:18:24.121Z,996.94
2022-11-16T00:19:24.092Z,996.92
2022-11-16T00:20:23.992Z,996.93
2022-11-16T00:21:24.000Z,996.94
2022-11-16T00:22:24.796Z,996.94
2022-11-16T00:23:23.991Z,996.95
2022-11-16T00:24:23.948Z,996.96
2022-11-16T00:25:23.950Z,996.95
2022-11-16T00:26:23.953Z,996.92
2022-11-16T00:27:24.664Z,996.94
2022-11-16T00:28:23.913Z,996.99
2022-11-16T00:29:23.874Z,996.87
2022-11-16T00:30:23.910Z,996.91
2022-11-16T00:31:23.888Z,996.91
2022-11-16T00:32:23.876Z,996.85
2022-11-16T00:33:23.832Z,996.91
2022-11-16T00:34:23.852Z,996.85
2022-11-16T00:35:23.819Z,996.92
2022-11-16T00:36:23.782Z,996.88
2022-11-16T00:37:23.818Z,996.91
2022-11-16T00:38:23.770Z,996.92
2022-11-16T00:39:23.742Z,996.86
2022-11-16T00:40:23.725Z,996.96
2022-11-16T00:41:23.752Z,996.86
2022-11-16T00:42:23.727Z,996.82
2022-11-16T00:43:24.440Z,996.84
2022-11-16T00:44:23.705Z,996.80
2022-11-16T00:45:23.688Z,996.85
2022-11-16T00:46:23.841Z,996.89
2022-11-16T00:47:24.433Z,996.86
2022-11-16T00:48:23.667Z,996.76
2022-11-16T00:49:23.611Z,996.81
2022-11-16T00:50:23.599Z,996.83
2022-11-16T00:51:23.601Z,996.79
2022-11-16T00:52:23.568Z,996.79
2022-11-16T00:53:23.820Z,996.79
2022-11-16T00:54:23.625Z,996.81
2022-11-16T00:55:23.574Z,996.80
2022-11-16T00:56:23.549Z,996.74
2022-11-16T00:57:23.515Z,996.77
2022-11-16T00:58:23.615Z,996.77
2022-11-16T00:59:23.528Z,996.75
2022-11-16T01:00:23.485Z,996.82
2022-11-16T01:01:23.502Z,996.79
2022-11-16T01:02:23.457Z,996.77
2022-11-16T01:03:23.468Z,996.80
2022-11-16T01:04:23.466Z,996.74
2022-11-16T01:05:23.408Z,996.79
2022-11-16T01:06:23.401Z,996.70
2022-11-16T01:07:23.453Z,996.73
2022-11-16T01:08:23.394Z,996.74
2022-11-16T01:09:23.383Z,996.81
2022-11-16T01:10:23.340Z,996.75
2022-11-16T01:11:23.337Z,996.80
2022-11-16T01:12:23.299Z,996.79
2022-11-16T01:13:23.344Z,996.78
2022-11-16T01:14:23.278Z,996.78
2022-11-16T01:15:23.275Z,996.78
2022-11-16T01:16:23.257Z,996.78
2022-11-16T01:17:23.273Z,996.79
2022-11-16T01:18:23.250Z,996.73
2022-11-16T01:19:23.216Z,996.71
2022-11-16T01:20:23.244Z,996.75
2022-11-16T01:21:23.298Z,996.72
2022-11-16T01:22:23.176Z,996.77
2022-11-16T01:23:23.179Z,996.78
2022-11-16T01:24:23.148Z,996.72
2022-11-16T01:25:23.154Z,996.73
2022-11-16T01:26:23.142Z,996.73
2022-11-16T01:27:23.273Z,996.70
2022-11-16T01:28:23.105Z,996.71
2022-11-16T01:29:23.134Z,996.72
2022-11-16T01:30:23.111Z,996.70
2022-11-16T01:31:23.100Z,996.72
2022-11-16T01:32:23.062Z,996.73
2022-11-16T01:33:23.131Z,996.68
2022-11-16T01:34:23.065Z,996.74
2022-11-16T01:35:23.006Z,996.69
2022-11-16T01:36:23.095Z,996.71
2022-11-16T01:37:23.005Z,996.74
2022-11-16T01:38:27.139Z,996.76
2022-11-16T01:39:24.010Z,996.72
2022-11-16T01:40:22.984Z,996.74
2022-11-16T01:41:22.976Z,996.79
2022-11-16T01:42:22.934Z,996.78
2022-11-16T01:43:23.230Z,996.75
2022-11-16T01:44:22.939Z,996.75
2022-11-16T01:45:22.892Z,996.81
2022-11-16T01:46:22.890Z,996.82
2022-11-16T01:47:22.859Z,996.91
2022-11-16T01:48:22.882Z,996.86
2022-11-16T01:49:22.858Z,996.86
2022-11-16T01:50:22.798Z,996.84
2022-11-16T01:51:22.819Z,996.87
2022-11-16T01:52:22.872Z,996.91
2022-11-16T01:53:22.840Z,996.91
2022-11-16T01:54:22.771Z,996.86
2022-11-16T01:55:22.789Z,996.87
2022-11-16T01:56:22.723Z,996.85
2022-11-16T01:57:22.852Z,996.93
2022-11-16T01:58:22.787Z,996.88
2022-11-16T01:59:22.692Z,996.85
2022-11-16T02:00:22.706Z,996.87
2022-11-16T02:01:22.839Z,996.92
2022-11-16T02:02:22.642Z,996.87
2022-11-16T02:03:22.669Z,996.86
2022-11-16T02:04:22.647Z,996.83
2022-11-16T02:05:22.648Z,996.91
2022-11-16T02:06:22.590Z,996.81
2022-11-16T02:07:22.691Z,996.83
2022-11-16T02:08:22.579Z,996.80
2022-11-16T02:09:22.595Z,996.84
2022-11-16T02:10:22.560Z,996.80
2022-11-16T02:11:22.546Z,996.76
2022-11-16T02:12:22.528Z,996.76
2022-11-16T02:13:22.556Z,996.75
2022-11-16T02:14:22.513Z,996.72
2022-11-16T02:15:22.488Z,996.67
2022-11-16T02:16:22.478Z,996.63
2022-11-16T02:17:22.492Z,996.60
2022-11-16T02:18:22.457Z,996.53
2022-11-16T02:19:22.430Z,996.52
2022-11-16T02:20:22.461Z,996.54
2022-11-16T02:21:22.428Z,996.64
2022-11-16T02:22:22.390Z,996.58
2022-11-16T02:23:22.416Z,996.52
2022-11-16T02:24:22.393Z,996.55
2022-11-16T02:25:22.369Z,996.50
2022-11-16T02:26:22.384Z,996.51
2022-11-16T02:27:23.289Z,996.54
2022-11-16T02:28:22.350Z,996.53
2022-11-16T02:29:22.331Z,996.54
2022-11-16T02:30:22.316Z,996.58
2022-11-16T02:31:22.267Z,996.57
2022-11-16T02:32:22.314Z,996.56
2022-11-16T02:33:22.342Z,996.53
2022-11-16T02:34:22.225Z,996.50
2022-11-16T02:35:31.219Z,996.50
2022-11-16T02:36:22.204Z,996.41
2022-11-16T02:37:22.214Z,996.40
2022-11-16T02:38:22.185Z,996.42
2022-11-16T02:39:22.175Z,996.37
2022-11-16T02:40:22.163Z,996.35
2022-11-16T02:41:22.162Z,996.29
2022-11-16T02:42:22.158Z,996.23
2022-11-16T02:43:22.193Z,996.25
2022-11-16T02:44:22.096Z,996.24
2022-11-16T02:45:22.137Z,996.24
2022-11-16T02:46:22.111Z,996.25
2022-11-16T02:47:22.120Z,996.17
2022-11-16T02:48:22.061Z,996.12
2022-11-16T02:49:22.092Z,996.19
2022-11-16T02:50:22.035Z,996.19
2022-11-16T02:51:22.079Z,996.19
2022-11-16T02:52:22.009Z,996.15
2022-11-16T02:53:22.019Z,996.20
2022-11-16T02:54:22.026Z,996.07
2022-11-16T02:55:22.021Z,996.06
2022-11-16T02:56:21.991Z,996.04
2022-11-16T02:57:21.980Z,996.04
2022-11-16T02:58:21.950Z,996.01
2022-11-16T02:59:21.903Z,995.99
2022-11-16T03:00:21.938Z,995.98
2022-11-16T03:01:21.965Z,996.03
2022-11-16T03:02:21.872Z,996.00
2022-11-16T03:03:21.880Z,996.03
2022-11-16T03:04:21.842Z,996.00
2022-11-16T03:05:21.862Z,995.98
2022-11-16T03:06:21.861Z,995.96
2022-11-16T03:07:21.854Z,995.95
2022-11-16T03:08:21.825Z,995.96
2022-11-16T03:09:21.797Z,996.04
2022-11-16T03:10:21.771Z,995.99
2022-11-16T03:11:21.779Z,996.05
2022-11-16T03:12:21.765Z,996.08
2022-11-16T03:13:21.757Z,996.09
2022-11-16T03:14:21.747Z,996.05
2022-11-16T03:15:21.680Z,996.08
2022-11-16T03:16:21.718Z,996.10
2022-11-16T03:17:21.701Z,996.10
2022-11-16T03:18:21.702Z,996.12
2022-11-16T03:19:21.664Z,996.12
2022-11-16T03:20:21.639Z,996.15
2022-11-16T03:21:21.908Z,996.17
2022-11-16T03:22:21.596Z,996.22
2022-11-16T03:23:21.607Z,996.26
2022-11-16T03:24:21.613Z,996.29
2022-11-16T03:25:21.614Z,996.28
2022-11-16T03:26:21.559Z,996.33
2022-11-16T03:27:21.609Z,996.38
2022-11-16T03:28:21.559Z,996.37
2022-11-16T03:29:21.568Z,996.37
2022-11-16T03:30:23.877Z,996.35
2022-11-16T03:31:21.505Z,996.38
2022-11-16T03:32:21.495Z,996.39
2022-11-16T03:33:21.458Z,996.40
2022-11-16T03:34:21.495Z,996.30
2022-11-16T03:35:21.447Z,996.32
2022-11-16T03:36:21.432Z,996.29
2022-11-16T03:37:21.429Z,996.31
2022-11-16T03:38:21.420Z,996.34
2022-11-16T03:39:21.447Z,996.43
2022-11-16T03:40:21.367Z,996.43
2022-11-16T03:41:21.384Z,996.41
2022-11-16T03:42:21.387Z,996.40
2022-11-16T03:43:21.371Z,996.41
2022-11-16T03:44:21.328Z,996.45
2022-11-16T03:45:21.350Z,996.38
2022-11-16T03:46:21.318Z,996.40
2022-11-16T03:47:21.333Z,996.37
2022-11-16T03:48:21.332Z,996.38
2022-11-16T03:49:21.256Z,996.38
2022-11-16T03:50:21.255Z,996.42
2022-11-16T03:51:21.260Z,996.42
2022-11-16T03:52:21.245Z,996.46
2022-11-16T03:53:21.232Z,996.48
2022-11-16T03:54:21.165Z,996.52
2022-11-16T03:55:21.226Z,996.51
2022-11-16T03:56:21.189Z,996.47
2022-11-16T03:57:21.162Z,996.58
2022-11-16T03:58:21.135Z,996.52
2022-11-16T03:59:21.191Z,996.42
2022-11-16T04:00:21.113Z,996.45
2022-11-16T04:01:21.188Z,996.48
2022-11-16T04:02:21.094Z,996.48
2022-11-16T04:03:21.094Z,996.45
2022-11-16T04:04:21.089Z,996.46
2022-11-16T04:05:21.039Z,996.47
2022-11-16T04:06:21.040Z,996.49
2022-11-16T04:07:21.085Z,996.51
2022-11-16T04:08:20.995Z,996.52
2022-11-16T04:09:21.008Z,996.53
2022-11-16T04:10:20.963Z,996.55
2022-11-16T04:11:20.943Z,996.62
2022-11-16T04:12:20.972Z,996.63
2022-11-16T04:13:20.959Z,996.68
2022-11-16T04:14:20.997Z,996.68
2022-11-16T04:15:20.979Z,996.66
2022-11-16T04:16:20.902Z,996.75
2022-11-16T04:17:20.932Z,996.77
2022-11-16T04:18:20.919Z,996.83
2022-11-16T04:19:20.946Z,996.88
2022-11-16T04:20:20.868Z,996.97
2022-11-16T04:21:20.848Z,996.94
2022-11-16T04:22:20.827Z,997.01
2022-11-16T04:23:20.791Z,997.05
2022-11-16T04:24:20.808Z,996.97
2022-11-16T04:25:20.753Z,996.89
2022-11-16T04:26:20.796Z,996.89
2022-11-16T04:27:20.758Z,996.84
2022-11-16T04:28:20.781Z,996.85
2022-11-16T04:29:20.767Z,996.91
2022-11-16T04:30:20.737Z,996.85
2022-11-16T04:31:20.690Z,996.82
2022-11-16T04:32:20.675Z,996.80
2022-11-16T04:33:20.724Z,996.83
2022-11-16T04:34:20.686Z,996.84
2022-11-16T04:35:20.670Z,996.87
2022-11-16T04:36:20.941Z,996.81
2022-11-16T04:37:20.627Z,996.79
2022-11-16T04:38:20.626Z,996.85
2022-11-16T04:39:20.642Z,996.83
2022-11-16T04:40:20.581Z,996.86
2022-11-16T04:41:20.549Z,996.89
2022-11-16T04:42:20.575Z,996.89
2022-11-16T04:43:20.547Z,996.91
2022-11-16T04:44:20.566Z,996.93
2022-11-16T04:45:20.528Z,997.00
2022-11-16T04:46:20.508Z,996.96
2022-11-16T04:47:20.515Z,996.94
2022-11-16T04:48:20.470Z,996.96
2022-11-16T04:49:20.492Z,996.97
2022-11-16T04:50:20.487Z,996.91
2022-11-16T04:51:20.429Z,996.91
2022-11-16T04:52:20.435Z,996.95
2022-11-16T04:53:20.422Z,996.92
2022-11-16T04:54:20.444Z,996.99
2022-11-16T04:55:20.379Z,996.95
2022-11-16T04:56:20.384Z,996.92
2022-11-16T04:57:20.404Z,996.93
2022-11-16T04:58:20.347Z,996.91
2022-11-16T04:59:20.355Z,996.92
2022-11-16T05:00:20.317Z,997.00
2022-11-16T05:01:20.409Z,996.98
2022-11-16T05:02:20.299Z,996.97
2022-11-16T05:03:20.341Z,996.96
2022-11-16T05:04:20.317Z,996.95
2022-11-16T05:05:20.246Z,997.01
2022-11-16T05:06:20.251Z,996.97
2022-11-16T05:07:20.273Z,996.98
2022-11-16T05:08:20.231Z,996.95
2022-11-16T05:09:20.195Z,997.03
2022-11-16T05:10:21.195Z,997.03
2022-11-16T05:11:20.193Z,997.00
2022-11-16T05:12:20.162Z,996.99
2022-11-16T05:13:21.184Z,996.96
2022-11-16T05:14:20.175Z,997.02
2022-11-16T05:15:20.172Z,997.06
2022-11-16T05:16:20.118Z,996.99
2022-11-16T05:17:20.105Z,997.03
2022-11-16T05:18:20.075Z,997.03
2022-11-16T05:19:20.083Z,996.97
2022-11-16T05:20:20.069Z,996.99
2022-11-16T05:21:20.041Z,997.06
2022-11-16T05:22:20.082Z,997.01
2022-11-16T05:23:20.034Z,996.99
2022-11-16T05:24:20.003Z,996.99
2022-11-16T05:25:19.981Z,997.01
2022-11-16T05:26:19.991Z,997.05
2022-11-16T05:27:20.010Z,996.99
2022-11-16T05:28:19.952Z,997.03
2022-11-16T05:29:19.972Z,997.02
2022-11-16T05:30:19.953Z,997.06
2022-11-16T05:31:19.910Z,997.04
2022-11-16T05:32:19.913Z,997.00
2022-11-16T05:33:19.903Z,997.00
2022-11-16T05:34:19.914Z,997.04
2022-11-16T05:35:19.887Z,997.05
2022-11-16T05:36:19.863Z,997.11
2022-11-16T05:37:19.869Z,997.10
2022-11-16T05:38:19.890Z,997.11
2022-11-16T05:39:19.839Z,997.15
2022-11-16T05:40:19.807Z,997.10
2022-11-16T05:41:19.803Z,997.10
2022-11-16T05:42:19.798Z,997.14
2022-11-16T05:43:19.761Z,997.15
2022-11-16T05:44:19.802Z,997.19
2022-11-16T05:45:21.161Z,997.19
2022-11-16T05:46:19.712Z,997.23
2022-11-16T05:47:19.701Z,997.22
2022-11-16T05:48:19.700Z,997.31
2022-11-16T05:49:19.680Z,997.25
2022-11-16T05:50:19.678Z,997.26
2022-11-16T05:51:19.638Z,997.30
2022-11-16T05:52:19.673Z,997.33
2022-11-16T05:53:19.621Z,997.25
2022-11-16T05:54:19.654Z,997.32
2022-11-16T05:55:19.569Z,997.26
2022-11-16T05:56:19.658Z,997.31
2022-11-16T05:57:19.577Z,997.27
2022-11-16T05:58:19.550Z,997.21
2022-11-16T05:59:19.587Z,997.24
2022-11-16T06:00:19.550Z,997.27
2022-11-16T06:01:19.510Z,997.26
2022-11-16T06:02:19.536Z,997.26
2022-11-16T06:03:19.524Z,997.24
2022-11-16T06:04:40.501Z,997.29
2022-11-16T06:05:19.557Z,997.30
2022-11-16T06:06:19.431Z,997.33
2022-11-16T06:07:19.515Z,997.31
2022-11-16T06:08:19.405Z,997.29
2022-11-16T06:09:19.419Z,997.36
2022-11-16T06:10:19.425Z,997.36
2022-11-16T06:11:19.415Z,997.46
2022-11-16T06:12:19.348Z,997.37
2022-11-16T06:13:19.404Z,997.38
2022-11-16T06:14:19.345Z,997.36
2022-11-16T06:15:19.370Z,997.38
2022-11-16T06:16:19.289Z,997.37
2022-11-16T06:17:19.335Z,997.42
2022-11-16T06:18:19.271Z,997.42
2022-11-16T06:19:19.314Z,997.51
2022-11-16T06:20:19.295Z,997.51
2022-11-16T06:21:19.275Z,997.52
2022-11-16T06:22:19.253Z,997.54
2022-11-16T06:23:19.254Z,997.60
2022-11-16T06:24:19.235Z,997.66
2022-11-16T06:25:19.178Z,997.64
2022-11-16T06:26:19.214Z,997.66
2022-11-16T06:27:19.182Z,997.67
2022-11-16T06:28:19.158Z,997.63
2022-11-16T06:29:19.173Z,997.62
2022-11-16T06:30:19.116Z,997.67
2022-11-16T06:31:19.122Z,997.59
2022-11-16T06:32:19.145Z,997.65
2022-11-16T06:33:19.096Z,997.67
2022-11-16T06:34:19.097Z,997.68
2022-11-16T06:35:19.122Z,997.73
2022-11-16T06:36:19.035Z,997.67
2022-11-16T06:37:19.061Z,997.75
2022-11-16T06:38:19.041Z,997.70
2022-11-16T06:39:19.040Z,997.67
2022-11-16T06:40:19.042Z,997.73
2022-11-16T06:41:18.972Z,997.70
2022-11-16T06:42:18.981Z,997.67
2022-11-16T06:43:19.041Z,997.68
2022-11-16T06:44:18.963Z,997.72
2022-11-16T06:45:18.961Z,997.78
2022-11-16T06:46:18.963Z,997.77
2022-11-16T06:47:18.885Z,997.79
2022-11-16T06:48:18.893Z,997.83
2022-11-16T06:49:18.917Z,997.86
2022-11-16T06:50:18.881Z,997.83
2022-11-16T06:51:18.857Z,997.91
2022-11-16T06:52:18.879Z,997.90
2022-11-16T06:53:39.803Z,997.87
2022-11-16T06:54:18.813Z,997.96
2022-11-16T06:55:18.792Z,997.83
2022-11-16T06:56:18.836Z,997.88
2022-11-16T06:57:18.788Z,997.87
2022-11-16T06:58:18.816Z,997.82
2022-11-16T06:59:18.866Z,997.83
2022-11-16T07:01:41.220Z,997.79
2022-11-16T07:02:36.822Z,997.80
2022-11-16T07:03:36.639Z,997.82
2022-11-16T07:04:45.115Z,997.86
2022-11-16T07:05:37.677Z,997.94
2022-11-16T07:06:45.554Z,997.94
2022-11-16T07:07:36.675Z,997.91
2022-11-16T07:08:36.948Z,997.99
2022-11-16T07:09:36.585Z,998.00
2022-11-16T07:11:54.824Z,998.04
2022-11-16T07:14:18.443Z,997.97
2022-11-16T07:15:27.592Z,997.99
2022-11-16T07:16:18.371Z,998.00
2022-11-16T07:18:51.593Z,998.06
2022-11-16T07:20:00.136Z,998.12
2022-11-16T07:20:51.693Z,998.14
2022-11-16T07:21:51.591Z,998.16
2022-11-16T07:22:59.747Z,998.20
2022-11-16T07:24:00.246Z,998.15
2022-11-16T07:25:00.938Z,998.19
2022-11-16T07:27:14.549Z,998.25
2022-11-16T07:28:15.321Z,998.30
2022-11-16T07:29:22.149Z,998.31
2022-11-16T07:30:15.348Z,998.39
2022-11-16T07:31:22.272Z,998.41
2022-11-16T07:32:14.319Z,998.39
2022-11-16T07:33:14.288Z,998.41
2022-11-16T07:34:14.261Z,998.40
2022-11-16T07:35:14.208Z,998.43
2022-11-16T07:37:34.214Z,998.43
2022-11-16T07:38:34.254Z,998.46
2022-11-16T07:39:34.142Z,998.39
2022-11-16T07:40:34.083Z,998.44
2022-11-16T07:41:42.517Z,998.49
2022-11-16T07:42:34.028Z,998.44
2022-11-16T07:44:37.703Z,998.48
2022-11-16T07:45:38.604Z,998.47
2022-11-16T07:46:46.719Z,998.51
2022-11-16T07:47:38.585Z,998.50
2022-11-16T07:48:38.720Z,998.51
2022-11-16T07:49:37.577Z,998.53
2022-11-16T07:50:37.497Z,998.58
2022-11-16T07:51:37.475Z,998.52
2022-11-16T07:52:37.493Z,998.45
2022-11-16T07:53:37.473Z,998.51
2022-11-16T07:54:38.474Z,998.53
2022-11-16T07:55:37.462Z,998.52
2022-11-16T07:56:37.454Z,998.52
2022-11-16T07:57:37.422Z,998.57
2022-11-16T07:58:37.410Z,998.60
2022-11-16T07:59:37.402Z,998.55
2022-11-16T08:00:37.377Z,998.59
2022-11-16T08:01:37.436Z,998.58
2022-11-16T08:02:37.334Z,998.60
2022-11-16T08:05:46.219Z,998.60
2022-11-16T08:06:46.197Z,998.60
2022-11-16T08:07:46.204Z,998.68
2022-11-16T08:08:46.145Z,998.63
2022-11-16T08:09:46.192Z,998.68
2022-11-16T08:10:46.147Z,998.70
2022-11-16T08:11:46.105Z,998.72
2022-11-16T08:12:46.069Z,998.74
2022-11-16T08:13:46.075Z,998.74
2022-11-16T08:14:46.077Z,998.81
2022-11-16T08:15:46.075Z,998.76
2022-11-16T08:16:46.049Z,998.89
2022-11-16T08:17:46.036Z,998.80
2022-11-16T08:18:45.977Z,998.77
2022-11-16T08:19:45.988Z,998.82
2022-11-16T08:20:45.995Z,998.82
2022-11-16T08:21:45.972Z,998.83
2022-11-16T08:22:45.958Z,998.87
2022-11-16T08:23:45.921Z,998.83
2022-11-16T08:24:45.932Z,998.90
2022-11-16T08:25:45.918Z,998.97
2022-11-16T08:26:45.904Z,998.95
2022-11-16T08:27:45.893Z,998.97
2022-11-16T08:28:45.894Z,998.99
2022-11-16T08:29:45.874Z,998.99
2022-11-16T08:30:49.649Z,998.99
2022-11-16T08:31:46.991Z,998.97
2022-11-16T08:32:45.807Z,999.05
2022-11-16T08:33:45.795Z,999.02
2022-11-16T08:34:45.805Z,999.00
2022-11-16T08:35:45.794Z,999.03
2022-11-16T08:36:45.774Z,999.04
2022-11-16T08:37:53.153Z,999.10
2022-11-16T08:38:45.741Z,999.10
2022-11-16T08:39:45.713Z,999.15
2022-11-16T08:40:45.721Z,999.13
2022-11-16T08:41:45.719Z,999.12
2022-11-16T08:42:45.697Z,999.16
2022-11-16T08:43:45.718Z,999.14
2022-11-16T08:44:45.643Z,999.20
2022-11-16T08:45:45.650Z,999.20
2022-11-16T08:46:45.707Z,999.22
2022-11-16T08:47:45.640Z,999.23
2022-11-16T08:48:45.637Z,999.32
2022-11-16T08:51:16.542Z,999.38
2022-11-16T08:52:31.722Z,999.40
2022-11-16T08:52:54.998Z,999.38
2022-11-16T08:53:54.968Z,999.44
2022-11-16T08:54:54.962Z,999.38
2022-11-16T08:55:55.003Z,999.39
2022-11-16T08:56:54.962Z,999.46
2022-11-16T08:57:54.991Z,999.44
2022-11-16T08:58:58.392Z,999.47
2022-11-16T08:59:54.888Z,999.45
2022-11-16T09:00:54.916Z,999.52
2022-11-16T09:01:55.037Z,999.38
2022-11-16T09:02:54.878Z,999.41
2022-11-16T09:03:54.875Z,999.46
2022-11-16T09:04:54.853Z,999.44
2022-11-16T09:05:54.872Z,999.49
2022-11-16T09:06:54.986Z,999.44
2022-11-16T09:07:54.814Z,999.36
2022-11-16T09:08:54.826Z,999.40
2022-11-16T09:09:54.793Z,999.36
2022-11-16T09:10:54.787Z,999.38
2022-11-16T09:12:15.775Z,999.35
2022-11-16T09:14:04.632Z,999.43
2022-11-16T09:15:04.669Z,999.45
2022-11-16T09:16:04.613Z,999.41
2022-11-16T09:17:04.614Z,999.45
2022-11-16T09:18:05.606Z,999.46
2022-11-16T09:19:04.573Z,999.48
2022-11-16T09:20:04.570Z,999.36
2022-11-16T09:21:04.551Z,999.44
2022-11-16T09:22:04.564Z,999.45
2022-11-16T09:23:04.525Z,999.40
2022-11-16T09:24:04.491Z,999.40
2022-11-16T09:25:04.606Z,999.40
2022-11-16T09:26:04.486Z,999.42
2022-11-16T09:27:04.474Z,999.43
2022-11-16T09:28:04.484Z,999.47
2022-11-16T09:29:04.470Z,999.44
2022-11-16T09:30:04.436Z,999.40
2022-11-16T09:31:04.467Z,999.49
2022-11-16T09:32:04.464Z,999.47
2022-11-16T09:33:04.408Z,999.50
2022-11-16T09:34:04.380Z,999.47
2022-11-16T09:35:04.369Z,999.53
2022-11-16T09:36:04.375Z,999.54
2022-11-16T09:37:04.389Z,999.53
2022-11-16T09:38:04.334Z,999.48
2022-11-16T09:39:30.657Z,999.50
2022-11-16T09:40:26.310Z,999.58
2022-11-16T09:41:25.297Z,999.51
2022-11-16T09:42:04.294Z,999.46
2022-11-16T09:43:04.258Z,999.51
2022-11-16T09:44:04.267Z,999.51
2022-11-16T09:45:04.266Z,999.54
2022-11-16T09:46:04.236Z,999.48
2022-11-16T09:47:04.207Z,999.52
2022-11-16T09:48:04.211Z,999.49
2022-11-16T09:49:04.177Z,999.46
2022-11-16T09:50:04.428Z,999.46
2022-11-16T09:51:25.187Z,999.46
2022-11-16T09:52:25.156Z,999.47
2022-11-16T09:53:04.146Z,999.54
2022-11-16T09:54:04.116Z,999.47
2022-11-16T09:55:04.173Z,999.54
2022-11-16T09:56:04.148Z,999.52
2022-11-16T09:57:09.383Z,999.49
2022-11-16T09:58:05.072Z,999.45
2022-11-16T09:59:04.047Z,999.47
2022-11-16T10:00:04.033Z,999.42
2022-11-16T10:01:04.060Z,999.39
2022-11-16T10:02:04.008Z,999.40
2022-11-16T10:03:04.018Z,999.44
2022-11-16T10:04:03.983Z,999.43
2022-11-16T10:05:03.966Z,999.42
2022-11-16T10:06:03.974Z,999.41
2022-11-16T10:07:04.948Z,999.41
2022-11-16T10:08:03.937Z,999.41
2022-11-16T10:09:03.947Z,999.40
2022-11-16T10:10:03.895Z,999.42
2022-11-16T10:11:03.906Z,999.42
2022-11-16T10:12:03.883Z,999.43
2022-11-16T10:13:03.868Z,999.39
2022-11-16T10:14:04.566Z,999.42
2022-11-16T10:15:03.875Z,999.41
2022-11-16T10:16:03.842Z,999.41
2022-11-16T10:17:03.803Z,999.39
2022-11-16T10:18:03.816Z,999.28
2022-11-16T10:19:03.804Z,999.29
2022-11-16T10:20:03.793Z,999.29
2022-11-16T10:21:04.771Z,999.26
2022-11-16T10:22:03.783Z,999.19
2022-11-16T10:23:03.744Z,999.20
2022-11-16T10:24:04.456Z,999.21
2022-11-16T10:25:04.663Z,999.11
2022-11-16T10:26:03.706Z,999.19
2022-11-16T10:27:03.695Z,999.17
2022-11-16T10:28:03.671Z,999.14
2022-11-16T10:29:03.652Z,999.14
2022-11-16T10:30:03.654Z,999.15
2022-11-16T10:31:03.645Z,999.11
2022-11-16T10:32:03.654Z,999.18
2022-11-16T10:33:08.095Z,999.14
2022-11-16T10:34:04.674Z,999.15
2022-11-16T10:35:03.610Z,999.10
2022-11-16T10:36:03.574Z,999.11
2022-11-16T10:37:03.583Z,999.11
2022-11-16T10:38:03.581Z,999.07
2022-11-16T10:39:03.561Z,999.04
2022-11-16T10:40:03.510Z,999.04
2022-11-16T10:41:03.502Z,999.04
2022-11-16T10:42:07.510Z,999.05
2022-11-16T10:43:03.478Z,999.00
2022-11-16T10:44:03.473Z,999.03
2022-11-16T10:45:03.487Z,999.00
2022-11-16T10:46:03.455Z,999.01
2022-11-16T10:47:03.462Z,998.96
2022-11-16T10:48:03.425Z,998.94
2022-11-16T10:49:03.411Z,998.98
2022-11-16T10:50:03.435Z,998.93
2022-11-16T10:51:03.360Z,998.96
2022-11-16T10:52:03.368Z,998.91
2022-11-16T10:53:03.356Z,998.96
2022-11-16T10:54:03.359Z,998.96
2022-11-16T10:55:03.386Z,998.96
2022-11-16T10:56:03.297Z,998.94
2022-11-16T10:57:03.311Z,998.98
2022-11-16T10:58:03.294Z,998.98
2022-11-16T10:59:03.285Z,998.91
2022-11-16T11:00:03.273Z,998.87
2022-11-16T11:01:03.315Z,998.86
2022-11-16T11:02:03.250Z,998.92
2022-11-16T11:03:03.349Z,999.01
2022-11-16T11:04:03.190Z,998.92
2022-11-16T11:05:03.199Z,998.86
2022-11-16T11:06:03.165Z,998.87
2022-11-16T11:07:03.207Z,998.92
2022-11-16T11:08:03.169Z,998.95
2022-11-16T11:09:03.153Z,998.82
2022-11-16T11:10:03.122Z,998.89
2022-11-16T11:11:03.129Z,998.78
2022-11-16T11:12:03.098Z,998.83
2022-11-16T11:13:03.089Z,998.85
2022-11-16T11:14:03.057Z,998.78
2022-11-16T11:15:03.083Z,998.79
2022-11-16T11:16:03.059Z,998.77
2022-11-16T11:17:03.035Z,998.78
2022-11-16T11:18:03.015Z,998.74
2022-11-16T11:19:03.016Z,998.78
2022-11-16T11:20:02.999Z,998.68
2022-11-16T11:21:02.967Z,998.68
2022-11-16T11:22:02.977Z,998.69
2022-11-16T11:23:02.980Z,998.57
2022-11-16T11:24:37.425Z,998.61
2022-11-16T11:25:03.938Z,998.55
2022-11-16T11:26:02.922Z,998.59
2022-11-16T11:27:02.919Z,998.58
2022-11-16T11:28:02.889Z,998.56
2022-11-16T11:29:02.888Z,998.54
2022-11-16T11:30:02.886Z,998.52
2022-11-16T11:31:02.875Z,998.54
2022-11-16T11:32:02.842Z,998.55
2022-11-16T11:33:02.813Z,998.51
2022-11-16T11:34:02.795Z,998.51
2022-11-16T11:35:02.796Z,998.48
2022-11-16T11:36:02.775Z,998.48
2022-11-16T11:37:02.796Z,998.47
2022-11-16T11:38:07.729Z,998.50
2022-11-16T11:39:03.841Z,998.53
2022-11-16T11:41:12.874Z,998.39
2022-11-16T11:42:12.122Z,998.42
2022-11-16T11:43:17.682Z,998.39
2022-11-16T11:44:13.093Z,998.39
2022-11-16T11:45:12.072Z,998.34
2022-11-16T11:46:12.083Z,998.27
2022-11-16T11:47:55.413Z,998.34
2022-11-16T11:48:13.037Z,998.31
2022-11-16T11:49:12.036Z,998.25
2022-11-16T11:50:12.033Z,998.23
2022-11-16T11:51:12.060Z,998.31
2022-11-16T11:52:12.195Z,998.28
2022-11-16T11:53:11.973Z,998.31
2022-11-16T11:54:11.959Z,998.21
2022-11-16T11:55:11.962Z,998.24
2022-11-16T11:56:11.965Z,998.25
2022-11-16T11:57:11.985Z,998.27
2022-11-16T11:58:11.955Z,998.19
2022-11-16T11:59:11.930Z,998.19
2022-11-16T12:00:11.914Z,998.15
2022-11-16T12:01:11.893Z,998.15
2022-11-16T12:02:11.852Z,998.19
2022-11-16T12:03:11.893Z,998.13
2022-11-16T12:04:11.844Z,998.14
2022-11-16T12:05:11.810Z,998.13
2022-11-16T12:06:11.844Z,998.16
2022-11-16T12:07:11.842Z,998.14
2022-11-16T12:08:11.794Z,998.14
2022-11-16T12:09:11.776Z,998.02
2022-11-16T12:10:11.790Z,998.03
2022-11-16T12:11:11.750Z,997.95
2022-11-16T12:12:14.685Z,997.96
2022-11-16T12:13:11.709Z,997.96
2022-11-16T12:14:11.723Z,998.02
2022-11-16T12:15:11.689Z,997.97
2022-11-16T12:16:11.731Z,997.93
2022-11-16T12:17:11.695Z,997.87
2022-11-16T12:18:11.695Z,997.94
2022-11-16T12:19:11.646Z,997.86
2022-11-16T12:20:11.635Z,997.92
2022-11-16T12:21:11.672Z,997.90
2022-11-16T12:22:11.598Z,997.94
2022-11-16T12:23:11.595Z,997.89
2022-11-16T12:24:11.582Z,997.88
2022-11-16T12:25:11.548Z,997.99
2022-11-16T12:26:11.615Z,997.91
2022-11-16T12:27:11.544Z,997.89
2022-11-16T12:28:11.534Z,997.91
2022-11-16T12:29:11.519Z,997.91
2022-11-16T12:30:11.510Z,997.84
2022-11-16T12:31:11.484Z,997.88
2022-11-16T12:32:11.500Z,997.87
2022-11-16T12:33:11.460Z,997.95
2022-11-16T12:34:11.436Z,997.95
2022-11-16T12:35:11.451Z,997.90
2022-11-16T12:36:11.430Z,997.88
2022-11-16T12:37:11.429Z,997.89
2022-11-16T12:38:11.418Z,997.83
2022-11-16T12:39:11.375Z,997.88
2022-11-16T12:40:11.366Z,997.85
2022-11-16T12:41:11.356Z,997.89
2022-11-16T12:42:11.335Z,997.86
2022-11-16T12:43:11.336Z,997.83